sensor_id;sensor_type;location;lat;lon;timestamp;P1;durP1;ratioP1;P2;durP2;ratioP2
26906;SDS011;14472;56.880;16.658;2023-07-09T00:02:26;4.90;;;2.78;;
26906;SDS011;14472;56.880;16.658;2023-07-09T00:04:52;3.50;;;2.65;;
26906;SDS011;14472;56.880;16.658;2023-07-09T00:07:26;3.38;;;2.88;;
26906;SDS011;14472;56.880;16.658;2023-07-09T00:09:54;3.40;;;3.10;;
26906;SDS011;14472;56.880;16.658;2023-07-09T00:12:21;4.20;;;3.05;;
26906;SDS011;14472;56.880;16.658;2023-07-09T00:14:56;4.40;;;3.13;;
26906;SDS011;14472;56.880;16.658;2023-07-09T00:17:32;5.38;;;3.35;;
26906;SDS011;14472;56.880;16.658;2023-07-09T00:19:59;4.60;;;3.47;;
26906;SDS011;14472;56.880;16.658;2023-07-09T00:22:25;4.32;;;2.95;;
26906;SDS011;14472;56.880;16.658;2023-07-09T00:24:54;3.33;;;2.90;;
26906;SDS011;14472;56.880;16.658;2023-07-09T00:27:23;4.15;;;3.15;;
26906;SDS011;14472;56.880;16.658;2023-07-09T00:29:55;4.28;;;3.03;;
26906;SDS011;14472;56.880;16.658;2023-07-09T00:32:21;3.30;;;3.00;;
26906;SDS011;14472;56.880;16.658;2023-07-09T00:34:47;3.72;;;3.10;;
26906;SDS011;14472;56.880;16.658;2023-07-09T00:37:18;6.28;;;3.03;;
26906;SDS011;14472;56.880;16.658;2023-07-09T00:39:46;3.22;;;2.92;;
26906;SDS011;14472;56.880;16.658;2023-07-09T00:42:14;6.13;;;3.10;;
26906;SDS011;14472;56.880;16.658;2023-07-09T00:44:43;6.68;;;3.38;;
26906;SDS011;14472;56.880;16.658;2023-07-09T00:50:20;3.42;;;2.95;;
26906;SDS011;14472;56.880;16.658;2023-07-09T00:52:51;4.10;;;2.80;;
26906;SDS011;14472;56.880;16.658;2023-07-09T00:55:22;3.28;;;2.97;;
26906;SDS011;14472;56.880;16.658;2023-07-09T00:57:51;3.72;;;3.30;;
26906;SDS011;14472;56.880;16.658;2023-07-09T01:00:32;3.45;;;3.15;;
26906;SDS011;14472;56.880;16.658;2023-07-09T01:03:11;5.93;;;3.67;;
26906;SDS011;14472;56.880;16.658;2023-07-09T01:05:59;3.50;;;3.17;;
26906;SDS011;14472;56.880;16.658;2023-07-09T01:08:27;3.45;;;3.00;;
26906;SDS011;14472;56.880;16.658;2023-07-09T01:10:56;4.15;;;3.25;;
26906;SDS011;14472;56.880;16.658;2023-07-09T01:13:24;6.15;;;3.28;;
26906;SDS011;14472;56.880;16.658;2023-07-09T01:15:52;3.60;;;3.28;;
26906;SDS011;14472;56.880;16.658;2023-07-09T01:18:19;3.60;;;3.00;;
26906;SDS011;14472;56.880;16.658;2023-07-09T01:20:46;4.15;;;2.90;;
26906;SDS011;14472;56.880;16.658;2023-07-09T01:23:12;3.90;;;3.00;;
26906;SDS011;14472;56.880;16.658;2023-07-09T01:25:41;4.72;;;3.17;;
26906;SDS011;14472;56.880;16.658;2023-07-09T01:28:11;5.25;;;3.42;;
26906;SDS011;14472;56.880;16.658;2023-07-09T01:30:38;6.53;;;3.55;;
26906;SDS011;14472;56.880;16.658;2023-07-09T01:33:05;4.60;;;3.15;;
26906;SDS011;14472;56.880;16.658;2023-07-09T01:35:35;4.82;;;3.53;;
26906;SDS011;14472;56.880;16.658;2023-07-09T01:38:03;4.05;;;3.50;;
26906;SDS011;14472;56.880;16.658;2023-07-09T01:40:31;4.10;;;3.63;;
26906;SDS011;14472;56.880;16.658;2023-07-09T01:42:57;3.47;;;3.13;;
26906;SDS011;14472;56.880;16.658;2023-07-09T01:45:24;4.80;;;3.20;;
26906;SDS011;14472;56.880;16.658;2023-07-09T01:47:51;4.03;;;3.55;;
26906;SDS011;14472;56.880;16.658;2023-07-09T01:50:19;3.72;;;3.42;;
26906;SDS011;14472;56.880;16.658;2023-07-09T01:52:44;3.70;;;3.40;;
26906;SDS011;14472;56.880;16.658;2023-07-09T01:55:12;3.83;;;3.42;;
26906;SDS011;14472;56.880;16.658;2023-07-09T01:57:42;4.07;;;3.70;;
26906;SDS011;14472;56.880;16.658;2023-07-09T02:00:11;4.43;;;3.97;;
26906;SDS011;14472;56.880;16.658;2023-07-09T02:02:41;6.95;;;3.80;;
26906;SDS011;14472;56.880;16.658;2023-07-09T02:05:08;4.43;;;4.03;;
26906;SDS011;14472;56.880;16.658;2023-07-09T02:07:35;3.90;;;3.47;;
26906;SDS011;14472;56.880;16.658;2023-07-09T02:10:01;6.65;;;3.65;;
26906;SDS011;14472;56.880;16.658;2023-07-09T02:12:27;4.80;;;3.88;;
26906;SDS011;14472;56.880;16.658;2023-07-09T02:14:52;5.10;;;3.95;;
26906;SDS011;14472;56.880;16.658;2023-07-09T02:17:18;6.63;;;3.60;;
26906;SDS011;14472;56.880;16.658;2023-07-09T02:19:44;5.13;;;3.47;;
26906;SDS011;14472;56.880;16.658;2023-07-09T02:22:10;4.97;;;3.58;;
26906;SDS011;14472;56.880;16.658;2023-07-09T02:24:37;3.90;;;3.50;;
26906;SDS011;14472;56.880;16.658;2023-07-09T02:27:04;4.53;;;3.90;;
26906;SDS011;14472;56.880;16.658;2023-07-09T02:29:31;4.40;;;3.67;;
26906;SDS011;14472;56.880;16.658;2023-07-09T02:31:58;4.40;;;3.50;;
26906;SDS011;14472;56.880;16.658;2023-07-09T02:34:25;4.68;;;3.58;;
26906;SDS011;14472;56.880;16.658;2023-07-09T02:36:53;3.92;;;3.47;;
26906;SDS011;14472;56.880;16.658;2023-07-09T02:39:19;5.75;;;3.70;;
26906;SDS011;14472;56.880;16.658;2023-07-09T02:41:45;3.80;;;3.50;;
26906;SDS011;14472;56.880;16.658;2023-07-09T02:44:11;3.97;;;3.47;;
26906;SDS011;14472;56.880;16.658;2023-07-09T02:46:37;4.35;;;3.67;;
26906;SDS011;14472;56.880;16.658;2023-07-09T02:49:03;3.92;;;3.40;;
26906;SDS011;14472;56.880;16.658;2023-07-09T02:51:30;5.53;;;3.47;;
26906;SDS011;14472;56.880;16.658;2023-07-09T02:53:57;4.15;;;3.55;;
26906;SDS011;14472;56.880;16.658;2023-07-09T02:56:24;6.43;;;3.70;;
26906;SDS011;14472;56.880;16.658;2023-07-09T02:58:50;4.82;;;3.55;;
26906;SDS011;14472;56.880;16.658;2023-07-09T03:01:16;3.88;;;3.55;;
26906;SDS011;14472;56.880;16.658;2023-07-09T03:03:42;3.75;;;3.42;;
26906;SDS011;14472;56.880;16.658;2023-07-09T03:06:08;4.18;;;3.78;;
26906;SDS011;14472;56.880;16.658;2023-07-09T03:08:35;5.03;;;3.58;;
26906;SDS011;14472;56.880;16.658;2023-07-09T03:11:10;4.45;;;3.50;;
26906;SDS011;14472;56.880;16.658;2023-07-09T03:13:37;3.58;;;3.28;;
26906;SDS011;14472;56.880;16.658;2023-07-09T03:16:03;3.72;;;3.35;;
26906;SDS011;14472;56.880;16.658;2023-07-09T03:18:30;5.85;;;3.60;;
26906;SDS011;14472;56.880;16.658;2023-07-09T03:20:56;5.40;;;3.53;;
26906;SDS011;14472;56.880;16.658;2023-07-09T03:23:22;5.38;;;4.00;;
26906;SDS011;14472;56.880;16.658;2023-07-09T03:25:47;5.82;;;3.45;;
26906;SDS011;14472;56.880;16.658;2023-07-09T03:28:13;4.50;;;3.53;;
26906;SDS011;14472;56.880;16.658;2023-07-09T03:30:43;5.63;;;3.67;;
26906;SDS011;14472;56.880;16.658;2023-07-09T03:33:10;5.38;;;3.53;;
26906;SDS011;14472;56.880;16.658;2023-07-09T03:35:37;4.13;;;3.08;;
26906;SDS011;14472;56.880;16.658;2023-07-09T03:38:04;3.47;;;3.13;;
26906;SDS011;14472;56.880;16.658;2023-07-09T03:40:30;4.00;;;3.53;;
26906;SDS011;14472;56.880;16.658;2023-07-09T03:42:56;4.75;;;3.10;;
26906;SDS011;14472;56.880;16.658;2023-07-09T03:45:22;4.28;;;3.35;;
26906;SDS011;14472;56.880;16.658;2023-07-09T03:47:48;5.60;;;3.40;;
26906;SDS011;14472;56.880;16.658;2023-07-09T03:50:14;5.60;;;3.50;;
26906;SDS011;14472;56.880;16.658;2023-07-09T03:52:40;4.28;;;3.00;;
26906;SDS011;14472;56.880;16.658;2023-07-09T03:55:06;3.42;;;3.13;;
26906;SDS011;14472;56.880;16.658;2023-07-09T03:57:32;4.85;;;3.20;;
26906;SDS011;14472;56.880;16.658;2023-07-09T03:59:59;3.85;;;3.25;;
26906;SDS011;14472;56.880;16.658;2023-07-09T04:02:25;3.35;;;3.05;;
26906;SDS011;14472;56.880;16.658;2023-07-09T04:04:51;3.50;;;3.20;;
26906;SDS011;14472;56.880;16.658;2023-07-09T04:07:17;4.28;;;3.20;;
26906;SDS011;14472;56.880;16.658;2023-07-09T04:09:42;3.88;;;3.40;;
26906;SDS011;14472;56.880;16.658;2023-07-09T04:12:08;4.72;;;3.30;;
26906;SDS011;14472;56.880;16.658;2023-07-09T04:14:35;5.28;;;3.25;;
26906;SDS011;14472;56.880;16.658;2023-07-09T04:17:01;4.38;;;3.35;;
26906;SDS011;14472;56.880;16.658;2023-07-09T04:19:27;4.80;;;3.03;;
26906;SDS011;14472;56.880;16.658;2023-07-09T04:21:53;3.78;;;3.40;;
26906;SDS011;14472;56.880;16.658;2023-07-09T04:24:19;3.63;;;3.20;;
26906;SDS011;14472;56.880;16.658;2023-07-09T04:26:45;3.08;;;2.88;;
26906;SDS011;14472;56.880;16.658;2023-07-09T04:29:11;3.65;;;3.35;;
26906;SDS011;14472;56.880;16.658;2023-07-09T04:31:38;4.07;;;3.25;;
26906;SDS011;14472;56.880;16.658;2023-07-09T04:34:05;3.60;;;3.15;;
26906;SDS011;14472;56.880;16.658;2023-07-09T04:36:31;8.60;;;3.35;;
26906;SDS011;14472;56.880;16.658;2023-07-09T04:38:57;4.15;;;3.22;;
26906;SDS011;14472;56.880;16.658;2023-07-09T04:41:23;2.97;;;2.78;;
26906;SDS011;14472;56.880;16.658;2023-07-09T04:43:49;4.13;;;3.35;;
26906;SDS011;14472;56.880;16.658;2023-07-09T04:46:15;4.43;;;3.10;;
26906;SDS011;14472;56.880;16.658;2023-07-09T04:48:41;4.53;;;3.30;;
26906;SDS011;14472;56.880;16.658;2023-07-09T04:51:06;4.00;;;3.17;;
26906;SDS011;14472;56.880;16.658;2023-07-09T04:53:32;4.43;;;3.65;;
26906;SDS011;14472;56.880;16.658;2023-07-09T04:55:58;5.10;;;3.70;;
26906;SDS011;14472;56.880;16.658;2023-07-09T04:58:23;4.63;;;3.75;;
26906;SDS011;14472;56.880;16.658;2023-07-09T05:00:49;5.07;;;4.05;;
26906;SDS011;14472;56.880;16.658;2023-07-09T05:03:18;6.07;;;4.47;;
26906;SDS011;14472;56.880;16.658;2023-07-09T05:05:45;4.88;;;4.00;;
26906;SDS011;14472;56.880;16.658;2023-07-09T05:08:12;6.65;;;4.32;;
26906;SDS011;14472;56.880;16.658;2023-07-09T05:10:42;6.00;;;4.40;;
26906;SDS011;14472;56.880;16.658;2023-07-09T05:13:08;5.90;;;4.60;;
26906;SDS011;14472;56.880;16.658;2023-07-09T05:15:34;4.35;;;3.95;;
26906;SDS011;14472;56.880;16.658;2023-07-09T05:18:00;5.10;;;3.58;;
26906;SDS011;14472;56.880;16.658;2023-07-09T05:20:26;8.57;;;3.40;;
26906;SDS011;14472;56.880;16.658;2023-07-09T05:22:52;3.20;;;2.90;;
26906;SDS011;14472;56.880;16.658;2023-07-09T05:25:17;3.65;;;2.80;;
26906;SDS011;14472;56.880;16.658;2023-07-09T05:27:43;3.92;;;2.75;;
26906;SDS011;14472;56.880;16.658;2023-07-09T05:30:09;3.88;;;2.80;;
26906;SDS011;14472;56.880;16.658;2023-07-09T05:32:36;5.35;;;2.67;;
26906;SDS011;14472;56.880;16.658;2023-07-09T05:35:02;3.70;;;2.90;;
26906;SDS011;14472;56.880;16.658;2023-07-09T05:37:29;4.05;;;2.80;;
26906;SDS011;14472;56.880;16.658;2023-07-09T05:39:55;3.70;;;2.97;;
26906;SDS011;14472;56.880;16.658;2023-07-09T05:42:21;3.10;;;2.80;;
26906;SDS011;14472;56.880;16.658;2023-07-09T05:44:47;4.03;;;3.30;;
26906;SDS011;14472;56.880;16.658;2023-07-09T05:47:13;2.97;;;2.58;;
26906;SDS011;14472;56.880;16.658;2023-07-09T05:49:39;3.22;;;2.75;;
26906;SDS011;14472;56.880;16.658;2023-07-09T05:52:05;3.40;;;2.65;;
26906;SDS011;14472;56.880;16.658;2023-07-09T05:54:31;3.10;;;2.80;;
26906;SDS011;14472;56.880;16.658;2023-07-09T05:56:57;3.70;;;2.80;;
26906;SDS011;14472;56.880;16.658;2023-07-09T05:59:23;4.30;;;3.03;;
26906;SDS011;14472;56.880;16.658;2023-07-09T06:01:48;3.40;;;3.10;;
26906;SDS011;14472;56.880;16.658;2023-07-09T06:04:14;3.42;;;3.13;;
26906;SDS011;14472;56.880;16.658;2023-07-09T06:06:41;3.22;;;2.90;;
26906;SDS011;14472;56.880;16.658;2023-07-09T06:09:07;3.53;;;3.15;;
26906;SDS011;14472;56.880;16.658;2023-07-09T06:11:34;3.28;;;2.88;;
26906;SDS011;14472;56.880;16.658;2023-07-09T06:14:00;3.10;;;2.80;;
26906;SDS011;14472;56.880;16.658;2023-07-09T06:16:26;2.92;;;2.65;;
26906;SDS011;14472;56.880;16.658;2023-07-09T06:18:52;4.00;;;2.72;;
26906;SDS011;14472;56.880;16.658;2023-07-09T06:21:18;3.22;;;2.92;;
26906;SDS011;14472;56.880;16.658;2023-07-09T06:23:45;2.80;;;2.60;;
26906;SDS011;14472;56.880;16.658;2023-07-09T06:26:11;3.40;;;2.50;;
26906;SDS011;14472;56.880;16.658;2023-07-09T06:28:37;2.97;;;2.78;;
26906;SDS011;14472;56.880;16.658;2023-07-09T06:31:03;2.70;;;2.45;;
26906;SDS011;14472;56.880;16.658;2023-07-09T06:33:29;2.92;;;2.72;;
26906;SDS011;14472;56.880;16.658;2023-07-09T06:35:59;3.25;;;2.90;;
26906;SDS011;14472;56.880;16.658;2023-07-09T06:38:26;2.88;;;2.67;;
26906;SDS011;14472;56.880;16.658;2023-07-09T06:40:53;3.88;;;2.75;;
26906;SDS011;14472;56.880;16.658;2023-07-09T06:43:19;2.72;;;2.50;;
26906;SDS011;14472;56.880;16.658;2023-07-09T06:45:52;3.88;;;3.10;;
26906;SDS011;14472;56.880;16.658;2023-07-09T06:48:22;3.78;;;2.90;;
26906;SDS011;14472;56.880;16.658;2023-07-09T06:50:48;3.05;;;2.70;;
26906;SDS011;14472;56.880;16.658;2023-07-09T06:53:15;3.20;;;2.90;;
26906;SDS011;14472;56.880;16.658;2023-07-09T06:55:41;2.92;;;2.60;;
26906;SDS011;14472;56.880;16.658;2023-07-09T06:58:07;3.50;;;2.80;;
26906;SDS011;14472;56.880;16.658;2023-07-09T07:00:34;3.72;;;2.83;;
26906;SDS011;14472;56.880;16.658;2023-07-09T07:03:01;2.95;;;2.75;;
26906;SDS011;14472;56.880;16.658;2023-07-09T07:05:27;3.10;;;2.80;;
26906;SDS011;14472;56.880;16.658;2023-07-09T07:07:53;2.97;;;2.78;;
26906;SDS011;14472;56.880;16.658;2023-07-09T07:10:19;3.70;;;2.83;;
26906;SDS011;14472;56.880;16.658;2023-07-09T07:12:46;3.20;;;2.90;;
26906;SDS011;14472;56.880;16.658;2023-07-09T07:15:14;3.15;;;2.85;;
26906;SDS011;14472;56.880;16.658;2023-07-09T07:17:41;3.20;;;2.78;;
26906;SDS011;14472;56.880;16.658;2023-07-09T07:20:07;3.08;;;2.88;;
26906;SDS011;14472;56.880;16.658;2023-07-09T07:22:34;3.78;;;2.70;;
26906;SDS011;14472;56.880;16.658;2023-07-09T07:25:00;3.20;;;2.90;;
26906;SDS011;14472;56.880;16.658;2023-07-09T07:27:26;3.00;;;2.75;;
26906;SDS011;14472;56.880;16.658;2023-07-09T07:29:52;2.95;;;2.70;;
26906;SDS011;14472;56.880;16.658;2023-07-09T07:32:19;3.67;;;2.55;;
26906;SDS011;14472;56.880;16.658;2023-07-09T07:34:46;3.13;;;2.67;;
26906;SDS011;14472;56.880;16.658;2023-07-09T07:37:13;2.67;;;2.47;;
26906;SDS011;14472;56.880;16.658;2023-07-09T07:39:39;2.72;;;2.53;;
26906;SDS011;14472;56.880;16.658;2023-07-09T07:42:05;4.35;;;2.70;;
26906;SDS011;14472;56.880;16.658;2023-07-09T07:44:32;2.53;;;2.33;;
26906;SDS011;14472;56.880;16.658;2023-07-09T07:46:57;3.10;;;2.40;;
26906;SDS011;14472;56.880;16.658;2023-07-09T07:49:23;2.65;;;2.45;;
26906;SDS011;14472;56.880;16.658;2023-07-09T07:51:49;2.55;;;2.33;;
26906;SDS011;14472;56.880;16.658;2023-07-09T07:54:14;2.80;;;2.60;;
26906;SDS011;14472;56.880;16.658;2023-07-09T07:56:44;2.85;;;2.53;;
26906;SDS011;14472;56.880;16.658;2023-07-09T07:59:10;2.60;;;2.40;;
26906;SDS011;14472;56.880;16.658;2023-07-09T08:01:35;3.97;;;2.22;;
26906;SDS011;14472;56.880;16.658;2023-07-09T08:04:02;2.50;;;2.30;;
26906;SDS011;14472;56.880;16.658;2023-07-09T08:06:28;2.47;;;2.28;;
26906;SDS011;14472;56.880;16.658;2023-07-09T08:08:56;2.58;;;2.38;;
26906;SDS011;14472;56.880;16.658;2023-07-09T08:11:22;3.50;;;2.50;;
26906;SDS011;14472;56.880;16.658;2023-07-09T08:13:49;4.72;;;2.58;;
26906;SDS011;14472;56.880;16.658;2023-07-09T08:16:15;3.03;;;2.67;;
26906;SDS011;14472;56.880;16.658;2023-07-09T08:18:41;3.67;;;2.40;;
26906;SDS011;14472;56.880;16.658;2023-07-09T08:21:07;4.07;;;2.47;;
26906;SDS011;14472;56.880;16.658;2023-07-09T08:23:34;3.75;;;2.22;;
26906;SDS011;14472;56.880;16.658;2023-07-09T08:26:01;2.78;;;2.58;;
26906;SDS011;14472;56.880;16.658;2023-07-09T08:28:28;3.90;;;2.13;;
26906;SDS011;14472;56.880;16.658;2023-07-09T08:30:55;2.50;;;2.30;;
26906;SDS011;14472;56.880;16.658;2023-07-09T08:33:22;2.30;;;2.10;;
26906;SDS011;14472;56.880;16.658;2023-07-09T08:35:49;2.28;;;2.13;;
26906;SDS011;14472;56.880;16.658;2023-07-09T08:38:15;3.70;;;2.40;;
26906;SDS011;14472;56.880;16.658;2023-07-09T08:40:52;5.15;;;2.15;;
26906;SDS011;14472;56.880;16.658;2023-07-09T08:46:00;2.40;;;2.20;;
26906;SDS011;14472;56.880;16.658;2023-07-09T08:50:59;3.25;;;2.30;;
26906;SDS011;14472;56.880;16.658;2023-07-09T08:54:13;2.80;;;2.40;;
26906;SDS011;14472;56.880;16.658;2023-07-09T08:56:21;2.45;;;2.25;;
26906;SDS011;14472;56.880;16.658;2023-07-09T08:58:48;2.47;;;2.28;;
26906;SDS011;14472;56.880;16.658;2023-07-09T09:01:20;2.35;;;2.15;;
26906;SDS011;14472;56.880;16.658;2023-07-09T09:03:53;3.65;;;2.35;;
26906;SDS011;14472;56.880;16.658;2023-07-09T09:06:28;2.55;;;2.35;;
26906;SDS011;14472;56.880;16.658;2023-07-09T09:09:04;2.70;;;2.15;;
26906;SDS011;14472;56.880;16.658;2023-07-09T09:11:43;2.47;;;2.20;;
26906;SDS011;14472;56.880;16.658;2023-07-09T09:14:31;3.92;;;2.67;;
26906;SDS011;14472;56.880;16.658;2023-07-09T09:17:00;3.25;;;2.60;;
26906;SDS011;14472;56.880;16.658;2023-07-09T09:19:32;2.83;;;2.40;;
26906;SDS011;14472;56.880;16.658;2023-07-09T09:22:09;3.17;;;2.25;;
26906;SDS011;14472;56.880;16.658;2023-07-09T09:27:25;2.60;;;2.40;;
26906;SDS011;14472;56.880;16.658;2023-07-09T09:29:51;3.85;;;2.40;;
26906;SDS011;14472;56.880;16.658;2023-07-09T09:34:43;2.20;;;2.00;;
26906;SDS011;14472;56.880;16.658;2023-07-09T09:37:11;2.47;;;2.28;;
26906;SDS011;14472;56.880;16.658;2023-07-09T09:39:37;2.88;;;2.28;;
26906;SDS011;14472;56.880;16.658;2023-07-09T09:42:10;2.22;;;2.03;;
26906;SDS011;14472;56.880;16.658;2023-07-09T09:44:42;2.45;;;2.25;;
26906;SDS011;14472;56.880;16.658;2023-07-09T09:47:12;3.35;;;2.20;;
26906;SDS011;14472;56.880;16.658;2023-07-09T09:49:39;2.30;;;2.10;;
26906;SDS011;14472;56.880;16.658;2023-07-09T09:52:09;2.25;;;2.05;;
26906;SDS011;14472;56.880;16.658;2023-07-09T09:54:40;2.17;;;1.88;;
26906;SDS011;14472;56.880;16.658;2023-07-09T09:57:19;1.90;;;1.70;;
26906;SDS011;14472;56.880;16.658;2023-07-09T09:59:49;2.13;;;1.70;;
26906;SDS011;14472;56.880;16.658;2023-07-09T10:02:20;1.52;;;1.42;;
26906;SDS011;14472;56.880;16.658;2023-07-09T10:04:49;3.00;;;1.75;;
26906;SDS011;14472;56.880;16.658;2023-07-09T10:09:57;1.52;;;1.40;;
26906;SDS011;14472;56.880;16.658;2023-07-09T10:20:26;2.63;;;1.80;;
26906;SDS011;14472;56.880;16.658;2023-07-09T10:28:33;1.50;;;1.40;;
26906;SDS011;14472;56.880;16.658;2023-07-09T10:41:32;1.75;;;1.60;;
26906;SDS011;14472;56.880;16.658;2023-07-09T10:46:31;2.20;;;1.50;;
26906;SDS011;14472;56.880;16.658;2023-07-09T10:49:01;1.70;;;1.60;;
26906;SDS011;14472;56.880;16.658;2023-07-09T10:51:38;1.70;;;1.60;;
26906;SDS011;14472;56.880;16.658;2023-07-09T10:57:20;1.90;;;1.80;;
26906;SDS011;14472;56.880;16.658;2023-07-09T10:59:52;1.70;;;1.60;;
26906;SDS011;14472;56.880;16.658;2023-07-09T11:02:31;2.40;;;1.70;;
26906;SDS011;14472;56.880;16.658;2023-07-09T11:05:00;3.20;;;3.00;;
26906;SDS011;14472;56.880;16.658;2023-07-09T11:10:32;1.60;;;1.50;;
26906;SDS011;14472;56.880;16.658;2023-07-09T11:13:09;3.92;;;1.80;;
26906;SDS011;14472;56.880;16.658;2023-07-09T11:15:39;1.77;;;1.67;;
26906;SDS011;14472;56.880;16.658;2023-07-09T11:18:19;2.80;;;2.22;;
26906;SDS011;14472;56.880;16.658;2023-07-09T11:20:54;2.40;;;1.90;;
26906;SDS011;14472;56.880;16.658;2023-07-09T11:23:50;1.90;;;1.77;;
26906;SDS011;14472;56.880;16.658;2023-07-09T11:26:29;2.00;;;1.90;;
26906;SDS011;14472;56.880;16.658;2023-07-09T11:36:45;2.28;;;1.83;;
26906;SDS011;14472;56.880;16.658;2023-07-09T11:39:22;2.47;;;1.90;;
26906;SDS011;14472;56.880;16.658;2023-07-09T11:41:48;1.92;;;1.83;;
26906;SDS011;14472;56.880;16.658;2023-07-09T11:44:18;1.70;;;1.60;;
26906;SDS011;14472;56.880;16.658;2023-07-09T11:46:53;2.13;;;1.80;;
26906;SDS011;14472;56.880;16.658;2023-07-09T11:49:49;4.75;;;1.70;;
26906;SDS011;14472;56.880;16.658;2023-07-09T11:52:45;1.90;;;1.73;;
26906;SDS011;14472;56.880;16.658;2023-07-09T11:57:46;1.80;;;1.65;;
26906;SDS011;14472;56.880;16.658;2023-07-09T12:00:14;1.83;;;1.70;;
26906;SDS011;14472;56.880;16.658;2023-07-09T12:02:40;3.05;;;1.60;;
26906;SDS011;14472;56.880;16.658;2023-07-09T12:05:06;1.90;;;1.80;;
26906;SDS011;14472;56.880;16.658;2023-07-09T12:07:33;1.80;;;1.70;;
26906;SDS011;14472;56.880;16.658;2023-07-09T12:10:02;1.88;;;1.73;;
26906;SDS011;14472;56.880;16.658;2023-07-09T12:12:34;1.67;;;1.58;;
26906;SDS011;14472;56.880;16.658;2023-07-09T12:15:04;3.97;;;1.65;;
26906;SDS011;14472;56.880;16.658;2023-07-09T12:17:41;1.77;;;1.67;;
26906;SDS011;14472;56.880;16.658;2023-07-09T12:20:07;2.63;;;1.88;;
26906;SDS011;14472;56.880;16.658;2023-07-09T12:22:33;1.75;;;1.65;;
26906;SDS011;14472;56.880;16.658;2023-07-09T12:24:59;2.13;;;1.60;;
26906;SDS011;14472;56.880;16.658;2023-07-09T12:27:26;1.90;;;1.70;;
26906;SDS011;14472;56.880;16.658;2023-07-09T12:29:54;1.88;;;1.70;;
26906;SDS011;14472;56.880;16.658;2023-07-09T12:32:21;1.92;;;1.70;;
26906;SDS011;14472;56.880;16.658;2023-07-09T12:34:52;1.77;;;1.60;;
26906;SDS011;14472;56.880;16.658;2023-07-09T12:37:19;1.73;;;1.50;;
26906;SDS011;14472;56.880;16.658;2023-07-09T12:39:49;1.80;;;1.70;;
26906;SDS011;14472;56.880;16.658;2023-07-09T12:42:23;2.20;;;1.80;;
26906;SDS011;14472;56.880;16.658;2023-07-09T12:44:54;1.70;;;1.60;;
26906;SDS011;14472;56.880;16.658;2023-07-09T12:47:20;3.00;;;1.45;;
26906;SDS011;14472;56.880;16.658;2023-07-09T12:49:50;1.88;;;1.65;;
26906;SDS011;14472;56.880;16.658;2023-07-09T12:52:21;2.92;;;1.70;;
26906;SDS011;14472;56.880;16.658;2023-07-09T12:54:59;1.83;;;1.73;;
26906;SDS011;14472;56.880;16.658;2023-07-09T12:57:27;1.60;;;1.50;;
26906;SDS011;14472;56.880;16.658;2023-07-09T12:59:55;1.70;;;1.60;;
26906;SDS011;14472;56.880;16.658;2023-07-09T13:02:28;1.60;;;1.50;;
26906;SDS011;14472;56.880;16.658;2023-07-09T13:05:01;1.77;;;1.67;;
26906;SDS011;14472;56.880;16.658;2023-07-09T13:07:31;1.70;;;1.50;;
26906;SDS011;14472;56.880;16.658;2023-07-09T13:10:04;2.13;;;1.70;;
26906;SDS011;14472;56.880;16.658;2023-07-09T13:12:40;2.63;;;1.60;;
26906;SDS011;14472;56.880;16.658;2023-07-09T13:15:22;1.98;;;1.58;;
26906;SDS011;14472;56.880;16.658;2023-07-09T13:17:56;3.35;;;1.27;;
26906;SDS011;14472;56.880;16.658;2023-07-09T13:20:23;2.15;;;1.60;;
26906;SDS011;14472;56.880;16.658;2023-07-09T13:22:49;1.60;;;1.50;;
26906;SDS011;14472;56.880;16.658;2023-07-09T13:25:15;2.13;;;1.58;;
26906;SDS011;14472;56.880;16.658;2023-07-09T13:27:41;2.08;;;1.88;;
26906;SDS011;14472;56.880;16.658;2023-07-09T13:30:09;1.92;;;1.67;;
26906;SDS011;14472;56.880;16.658;2023-07-09T13:32:35;2.25;;;1.90;;
26906;SDS011;14472;56.880;16.658;2023-07-09T13:35:00;1.63;;;1.52;;
26906;SDS011;14472;56.880;16.658;2023-07-09T13:37:27;1.70;;;1.60;;
26906;SDS011;14472;56.880;16.658;2023-07-09T13:39:53;1.80;;;1.60;;
26906;SDS011;14472;56.880;16.658;2023-07-09T13:42:18;2.13;;;1.90;;
26906;SDS011;14472;56.880;16.658;2023-07-09T13:44:46;3.20;;;1.50;;
26906;SDS011;14472;56.880;16.658;2023-07-09T13:47:13;3.35;;;1.70;;
26906;SDS011;14472;56.880;16.658;2023-07-09T13:49:42;1.50;;;1.40;;
26906;SDS011;14472;56.880;16.658;2023-07-09T13:52:10;2.55;;;1.65;;
26906;SDS011;14472;56.880;16.658;2023-07-09T13:54:45;1.70;;;1.60;;
26906;SDS011;14472;56.880;16.658;2023-07-09T13:57:14;1.40;;;1.30;;
26906;SDS011;14472;56.880;16.658;2023-07-09T13:59:43;3.92;;;1.33;;
26906;SDS011;14472;56.880;16.658;2023-07-09T14:04:56;2.25;;;1.50;;
26906;SDS011;14472;56.880;16.658;2023-07-09T14:07:30;1.38;;;1.27;;
26906;SDS011;14472;56.880;16.658;2023-07-09T14:09:58;1.40;;;1.30;;
26906;SDS011;14472;56.880;16.658;2023-07-09T14:12:25;3.72;;;1.45;;
26906;SDS011;14472;56.880;16.658;2023-07-09T14:14:53;1.95;;;1.42;;
26906;SDS011;14472;56.880;16.658;2023-07-09T14:17:20;2.30;;;1.20;;
26906;SDS011;14472;56.880;16.658;2023-07-09T14:19:47;1.50;;;1.40;;
26906;SDS011;14472;56.880;16.658;2023-07-09T14:22:33;1.25;;;1.15;;
26906;SDS011;14472;56.880;16.658;2023-07-09T14:25:00;2.53;;;1.50;;
26906;SDS011;14472;56.880;16.658;2023-07-09T14:27:28;2.58;;;1.40;;
26906;SDS011;14472;56.880;16.658;2023-07-09T14:29:54;2.72;;;1.70;;
26906;SDS011;14472;56.880;16.658;2023-07-09T14:32:33;2.13;;;1.70;;
26906;SDS011;14472;56.880;16.658;2023-07-09T14:35:01;2.13;;;1.40;;
26906;SDS011;14472;56.880;16.658;2023-07-09T14:37:34;1.40;;;1.30;;
26906;SDS011;14472;56.880;16.658;2023-07-09T14:40:00;1.45;;;1.27;;
26906;SDS011;14472;56.880;16.658;2023-07-09T14:42:26;2.30;;;1.50;;
26906;SDS011;14472;56.880;16.658;2023-07-09T14:44:52;1.50;;;1.40;;
26906;SDS011;14472;56.880;16.658;2023-07-09T14:47:20;1.38;;;1.20;;
26906;SDS011;14472;56.880;16.658;2023-07-09T14:49:47;2.10;;;1.40;;
26906;SDS011;14472;56.880;16.658;2023-07-09T14:52:15;1.50;;;1.40;;
26906;SDS011;14472;56.880;16.658;2023-07-09T14:54:47;1.60;;;1.30;;
26906;SDS011;14472;56.880;16.658;2023-07-09T14:57:20;1.77;;;1.40;;
26906;SDS011;14472;56.880;16.658;2023-07-09T14:59:47;1.75;;;1.58;;
26906;SDS011;14472;56.880;16.658;2023-07-09T15:02:22;1.35;;;1.25;;
26906;SDS011;14472;56.880;16.658;2023-07-09T15:04:48;1.30;;;1.20;;
26906;SDS011;14472;56.880;16.658;2023-07-09T15:07:14;2.28;;;1.30;;
26906;SDS011;14472;56.880;16.658;2023-07-09T15:09:40;1.50;;;1.40;;
26906;SDS011;14472;56.880;16.658;2023-07-09T15:12:13;1.30;;;1.20;;
26906;SDS011;14472;56.880;16.658;2023-07-09T15:14:43;1.42;;;1.33;;
26906;SDS011;14472;56.880;16.658;2023-07-09T15:17:12;1.52;;;1.40;;
26906;SDS011;14472;56.880;16.658;2023-07-09T15:19:39;2.45;;;1.25;;
26906;SDS011;14472;56.880;16.658;2023-07-09T15:22:05;3.67;;;1.13;;
26906;SDS011;14472;56.880;16.658;2023-07-09T15:24:37;2.58;;;1.25;;
26906;SDS011;14472;56.880;16.658;2023-07-09T15:27:03;1.50;;;1.30;;
26906;SDS011;14472;56.880;16.658;2023-07-09T15:29:30;1.33;;;1.20;;
26906;SDS011;14472;56.880;16.658;2023-07-09T15:31:56;1.38;;;1.27;;
26906;SDS011;14472;56.880;16.658;2023-07-09T15:34:23;1.30;;;1.20;;
26906;SDS011;14472;56.880;16.658;2023-07-09T15:36:49;3.55;;;1.52;;
26906;SDS011;14472;56.880;16.658;2023-07-09T15:39:16;2.38;;;1.27;;
26906;SDS011;14472;56.880;16.658;2023-07-09T15:41:43;1.40;;;1.30;;
26906;SDS011;14472;56.880;16.658;2023-07-09T15:44:10;3.00;;;1.20;;